Time;durP1;ratioP1;P1;durP2;ratioP2;P2;SDS_P1;SDS_P2;PMS_P1;PMS_P2;Temp;Humidity;BMP_temperature;BMP_pressure;BME280_temperature;BME280_humidity;BME280_pressure;Samples;Min_cycle;Max_cycle;Signal;HPM_P1;HPM_P2
2024/03/18 00:02:24;;;;;;;24.05;14.02;;;11.20;99.90;;;;;;5090317;28;20069;-81
2024/03/18 00:04:50;;;;;;;28.80;16.25;;;11.30;99.90;;;;;;5089229;28;20048;-82
2024/03/18 00:07:16;;;;;;;25.60;15.88;;;11.30;99.90;;;;;;5089577;28;20039;-82
2024/03/18 00:09:42;;;;;;;25.42;14.52;;;11.50;99.90;;;;;;5090305;28;20505;-84
2024/03/18 00:12:08;;;;;;;23.17;13.55;;;11.40;99.90;;;;;;5089849;28;20059;-82
2024/03/18 00:14:34;;;;;;;21.42;14.13;;;11.30;99.90;;;;;;5089158;28;20032;-82
2024/03/18 00:16:59;;;;;;;26.15;14.82;;;11.20;99.90;;;;;;5088907;28;20396;-83
2024/03/18 00:19:25;;;;;;;24.65;14.70;;;11.20;99.90;;;;;;5088247;28;20090;-82
2024/03/18 00:21:51;;;;;;;28.90;16.48;;;11.20;99.90;;;;;;5090348;28;20047;-81
2024/03/18 00:24:19;;;;;;;28.60;15.63;;;11.30;99.90;;;;;;5088985;28;20053;-82
2024/03/18 00:26:46;;;;;;;23.50;14.48;;;11.30;99.90;;;;;;5087959;28;20035;-83
2024/03/18 00:29:12;;;;;;;25.95;14.60;;;11.30;99.90;;;;;;5088993;28;20503;-85
2024/03/18 00:31:38;;;;;;;23.73;14.73;;;11.20;99.90;;;;;;5089014;28;20027;-85
2024/03/18 00:34:03;;;;;;;25.98;14.25;;;11.20;99.90;;;;;;5088923;28;20035;-82
2024/03/18 00:36:30;;;;;;;23.73;15.02;;;11.30;99.90;;;;;;5086794;28;20058;-83
2024/03/18 00:38:55;;;;;;;27.83;16.05;;;11.20;99.90;;;;;;5089356;28;20413;-83
2024/03/18 00:44:05;;;;;;;25.33;15.55;;;11.20;99.90;;;;;;5093964;28;20058;-81
2024/03/18 00:46:31;;;;;;;28.52;15.80;;;11.20;99.90;;;;;;5094096;28;20032;-82
2024/03/18 00:48:56;;;;;;;32.30;16.63;;;11.30;99.90;;;;;;5096384;28;20039;-82
2024/03/18 00:51:22;;;;;;;27.40;16.02;;;11.40;99.90;;;;;;5094275;28;20038;-81
2024/03/18 00:53:48;;;;;;;29.10;16.92;;;11.30;99.90;;;;;;5095523;28;20385;-81
2024/03/18 00:56:14;;;;;;;25.15;15.25;;;11.30;99.90;;;;;;5097715;28;20023;-82
2024/03/18 00:58:39;;;;;;;26.90;16.63;;;11.40;99.90;;;;;;5094785;28;20642;-82
2024/03/18 01:01:07;;;;;;;22.02;13.85;;;11.50;99.90;;;;;;5096747;28;20059;-82
2024/03/18 01:03:35;;;;;;;27.85;16.15;;;11.40;99.90;;;;;;5095413;28;20031;-83
2024/03/18 01:06:01;;;;;;;24.88;15.85;;;11.30;99.90;;;;;;5093100;28;20120;-82
2024/03/18 01:08:26;;;;;;;31.65;17.05;;;11.20;99.90;;;;;;5096859;28;20039;-82
2024/03/18 01:10:52;;;;;;;27.48;15.60;;;11.20;99.90;;;;;;5094547;28;20112;-82
2024/03/18 01:13:18;;;;;;;31.55;18.30;;;11.20;99.90;;;;;;5093161;28;20039;-82
2024/03/18 01:15:44;;;;;;;27.92;15.55;;;11.20;99.90;;;;;;5096010;28;20130;-82
2024/03/18 01:18:10;;;;;;;26.60;15.02;;;11.30;99.90;;;;;;5091787;28;20055;-82
2024/03/18 01:20:36;;;;;;;25.38;15.02;;;11.40;99.90;;;;;;5095072;28;20039;-82
2024/03/18 01:23:05;;;;;;;25.45;13.43;;;11.40;99.90;;;;;;5095725;28;20413;-82
2024/03/18 01:25:33;;;;;;;25.75;15.60;;;11.40;99.90;;;;;;5097648;28;20122;-82
2024/03/18 01:27:59;;;;;;;24.65;13.27;;;11.30;99.90;;;;;;5093873;28;20042;-81
2024/03/18 01:30:25;;;;;;;24.70;14.45;;;11.40;99.90;;;;;;5095949;28;20493;-82
2024/03/18 01:32:50;;;;;;;23.25;13.27;;;11.20;99.90;;;;;;5095941;28;20028;-82
2024/03/18 01:35:16;;;;;;;22.35;12.43;;;11.20;99.90;;;;;;5089550;28;20148;-82
2024/03/18 01:37:45;;;;;;;26.20;12.65;;;11.20;99.90;;;;;;5093646;28;20024;-82
2024/03/18 01:40:12;;;;;;;21.30;12.27;;;11.20;99.90;;;;;;5092485;28;20152;-82
2024/03/18 01:42:39;;;;;;;21.60;13.23;;;11.20;99.90;;;;;;5094200;28;20040;-82
2024/03/18 01:45:05;;;;;;;25.27;13.10;;;11.00;99.90;;;;;;5094454;28;20043;-80
2024/03/18 01:47:31;;;;;;;22.88;13.90;;;11.00;99.90;;;;;;5094768;28;20093;-79
2024/03/18 01:49:57;;;;;;;25.70;13.82;;;11.10;99.90;;;;;;5091108;28;20481;-80
2024/03/18 01:52:24;;;;;;;24.20;12.07;;;11.20;99.90;;;;;;5095659;28;20040;-80
2024/03/18 01:54:50;;;;;;;23.63;13.50;;;11.10;99.90;;;;;;5095492;28;20054;-79
2024/03/18 01:57:17;;;;;;;25.80;15.40;;;11.00;99.90;;;;;;5093263;28;20035;-80
2024/03/18 01:59:42;;;;;;;25.40;14.43;;;11.00;99.90;;;;;;5093206;28;20514;-79
2024/03/18 02:02:08;;;;;;;24.60;15.52;;;11.00;99.90;;;;;;5095042;28;20027;-79
2024/03/18 02:04:34;;;;;;;23.10;13.35;;;11.00;99.90;;;;;;5093561;28;20068;-79
2024/03/18 02:07:00;;;;;;;24.77;15.13;;;10.90;99.90;;;;;;5093482;28;20154;-81
2024/03/18 02:09:28;;;;;;;26.15;14.15;;;11.00;99.90;;;;;;5094876;28;20081;-80
2024/03/18 02:11:54;;;;;;;23.00;14.25;;;11.10;99.90;;;;;;5094531;28;20035;-79
2024/03/18 02:14:21;;;;;;;25.30;15.10;;;11.30;99.90;;;;;;5095496;28;20034;-79
2024/03/18 02:16:47;;;;;;;24.33;14.38;;;11.10;99.90;;;;;;5092125;28;20128;-81
2024/03/18 02:19:12;;;;;;;25.58;14.52;;;11.00;99.90;;;;;;5091899;28;20503;-79
2024/03/18 02:21:38;;;;;;;24.15;14.20;;;11.00;99.90;;;;;;5095108;28;20035;-82
2024/03/18 02:24:06;;;;;;;24.98;14.27;;;11.00;99.90;;;;;;5092160;28;20036;-80
2024/03/18 02:26:35;;;;;;;24.92;14.57;;;10.90;99.90;;;;;;5093285;28;20027;-80
2024/03/18 02:29:01;;;;;;;22.35;13.20;;;10.90;99.90;;;;;;5096038;28;20027;-79
2024/03/18 02:31:27;;;;;;;28.55;14.95;;;11.00;99.90;;;;;;5092882;28;20074;-80
2024/03/18 02:33:53;;;;;;;27.92;16.05;;;11.10;99.90;;;;;;5094889;28;20032;-80
2024/03/18 02:36:18;;;;;;;28.40;14.70;;;11.10;99.90;;;;;;5093883;28;20035;-79
2024/03/18 02:38:44;;;;;;;29.48;14.77;;;11.10;99.90;;;;;;5093245;28;20031;-80
2024/03/18 02:41:11;;;;;;;27.33;16.85;;;11.10;99.90;;;;;;5092914;28;20038;-79
2024/03/18 02:43:36;;;;;;;27.90;14.40;;;11.00;99.90;;;;;;5094806;28;20039;-79
2024/03/18 02:46:04;;;;;;;32.05;17.77;;;11.00;99.90;;;;;;5091324;28;20401;-80
2024/03/18 02:48:31;;;;;;;27.30;15.57;;;11.10;99.90;;;;;;5092279;28;20035;-79
2024/03/18 02:50:57;;;;;;;21.50;13.55;;;11.10;99.90;;;;;;5092674;28;20561;-79
2024/03/18 02:53:23;;;;;;;23.25;13.40;;;11.10;99.90;;;;;;5091614;28;20028;-79
2024/03/18 02:55:49;;;;;;;23.58;13.32;;;11.00;99.90;;;;;;5092826;28;20036;-79
2024/03/18 02:58:16;;;;;;;24.92;14.20;;;10.90;99.90;;;;;;5093095;27;20031;-80
2024/03/18 03:00:42;;;;;;;25.73;15.05;;;10.90;99.90;;;;;;5092803;28;20144;-79
2024/03/18 03:03:08;;;;;;;21.45;12.88;;;11.00;99.90;;;;;;5090487;28;20027;-79
2024/03/18 03:05:33;;;;;;;24.42;15.50;;;11.10;99.90;;;;;;5094460;28;20074;-80
2024/03/18 03:07:59;;;;;;;26.48;14.50;;;11.20;99.90;;;;;;5091633;28;20039;-79
2024/03/18 03:10:24;;;;;;;24.13;13.13;;;11.20;99.90;;;;;;5092887;28;20066;-80
2024/03/18 03:12:50;;;;;;;20.15;11.80;;;11.30;99.90;;;;;;5094375;28;20035;-80
2024/03/18 03:15:16;;;;;;;23.05;11.63;;;11.10;99.90;;;;;;5092647;28;20035;-80
2024/03/18 03:17:41;;;;;;;18.92;11.50;;;11.00;99.90;;;;;;5092174;28;20052;-80
2024/03/18 03:20:08;;;;;;;19.38;10.23;;;10.80;99.90;;;;;;5094757;28;20050;-80
2024/03/18 03:22:37;;;;;;;24.85;10.93;;;10.70;99.90;;;;;;5092579;28;20028;-80
2024/03/18 03:25:04;;;;;;;21.85;11.45;;;10.70;99.90;;;;;;5092491;28;20116;-80
2024/03/18 03:27:32;;;;;;;22.38;11.85;;;10.70;99.90;;;;;;5091710;28;20031;-81
2024/03/18 03:29:58;;;;;;;21.52;11.35;;;10.70;99.90;;;;;;5093179;28;20051;-80
2024/03/18 03:32:24;;;;;;;21.83;12.35;;;10.70;99.90;;;;;;5093604;28;20026;-80
2024/03/18 03:34:49;;;;;;;18.70;11.15;;;10.70;99.90;;;;;;5092789;28;20381;-80
2024/03/18 03:37:15;;;;;;;22.33;11.80;;;10.70;99.90;;;;;;5093122;28;20059;-80
2024/03/18 03:39:41;;;;;;;19.33;11.88;;;10.70;99.90;;;;;;5092224;28;20035;-80
2024/03/18 03:42:06;;;;;;;19.90;13.00;;;10.60;99.90;;;;;;5091840;28;20042;-80
2024/03/18 03:44:32;;;;;;;18.40;10.63;;;10.50;99.90;;;;;;5092725;28;20451;-79
2024/03/18 03:46:58;;;;;;;18.48;10.10;;;10.60;99.90;;;;;;5092395;28;20019;-80
2024/03/18 03:49:25;;;;;;;19.90;11.50;;;10.50;99.90;;;;;;5094748;28;20027;-80
2024/03/18 03:51:51;;;;;;;13.57;8.82;;;10.60;99.90;;;;;;5092281;28;20393;-80
2024/03/18 03:54:17;;;;;;;13.48;8.30;;;10.60;99.90;;;;;;5091603;28;20019;-80
2024/03/18 03:56:42;;;;;;;17.88;9.13;;;10.80;99.90;;;;;;5092870;28;20034;-80
2024/03/18 03:59:08;;;;;;;17.25;9.07;;;10.90;99.90;;;;;;5091455;28;20036;-80
2024/03/18 04:01:33;;;;;;;16.10;9.25;;;10.80;99.90;;;;;;5089909;28;20504;-80
2024/03/18 04:03:59;;;;;;;13.52;7.88;;;10.80;99.90;;;;;;5090135;28;20047;-81
2024/03/18 04:06:25;;;;;;;13.30;7.32;;;10.70;99.90;;;;;;5088641;28;21204;-79
2024/03/18 04:08:50;;;;;;;11.55;6.68;;;10.70;99.90;;;;;;5089731;28;20106;-80
2024/03/18 04:11:17;;;;;;;12.68;7.15;;;10.70;99.90;;;;;;5089377;28;20035;-81
2024/03/18 04:13:42;;;;;;;15.68;7.13;;;10.60;99.90;;;;;;5089639;28;20035;-80
2024/03/18 04:16:08;;;;;;;11.27;7.05;;;10.50;99.90;;;;;;5088896;28;20036;-80
2024/03/18 04:18:38;;;;;;;12.02;6.50;;;10.60;99.90;;;;;;5090540;28;20062;-81
2024/03/18 04:21:03;;;;;;;11.90;6.57;;;10.70;99.90;;;;;;5090832;28;20481;-81
2024/03/18 04:23:29;;;;;;;8.05;4.35;;;10.70;99.90;;;;;;5091988;28;20042;-81
2024/03/18 04:25:56;;;;;;;11.32;5.20;;;10.80;99.90;;;;;;5093928;28;20070;-80
2024/03/18 04:28:22;;;;;;;10.07;4.78;;;10.90;99.90;;;;;;5093679;28;20035;-81
2024/03/18 04:30:48;;;;;;;9.73;4.80;;;10.80;99.90;;;;;;5093748;28;20027;-81
2024/03/18 04:33:13;;;;;;;10.23;5.75;;;10.80;99.90;;;;;;5093837;28;20163;-80
2024/03/18 04:35:39;;;;;;;10.27;5.88;;;10.80;99.90;;;;;;5089444;28;20031;-80
2024/03/18 04:38:05;;;;;;;10.68;5.90;;;10.70;99.90;;;;;;5089886;28;20051;-80
2024/03/18 04:40:31;;;;;;;10.63;5.80;;;10.70;99.90;;;;;;5090084;28;20142;-80
2024/03/18 04:42:56;;;;;;;8.23;4.60;;;10.70;99.90;;;;;;5093517;28;20027;-80
2024/03/18 04:45:23;;;;;;;11.68;5.82;;;10.70;99.90;;;;;;5093934;28;20481;-80
2024/03/18 04:47:51;;;;;;;8.38;4.93;;;10.60;99.90;;;;;;5091769;28;20653;-81
2024/03/18 04:50:24;;;;;;;9.15;5.05;;;10.70;99.90;;;;;;5091328;28;20039;-80
2024/03/18 04:52:51;;;;;;;7.50;4.13;;;10.80;99.90;;;;;;5092896;28;20036;-85
2024/03/18 04:55:18;;;;;;;6.75;3.50;;;10.90;99.90;;;;;;5092219;28;20063;-85
2024/03/18 04:57:43;;;;;;;6.72;3.60;;;10.80;99.90;;;;;;5088016;28;20039;-80
2024/03/18 05:00:14;;;;;;;7.82;3.80;;;10.80;99.90;;;;;;5090839;28;20100;-80
2024/03/18 05:02:40;;;;;;;8.48;4.75;;;10.80;99.90;;;;;;5091528;28;20481;-80
2024/03/18 05:05:07;;;;;;;10.35;4.53;;;10.70;99.90;;;;;;5089773;28;20048;-80
2024/03/18 05:07:33;;;;;;;8.35;4.03;;;10.70;99.90;;;;;;5091146;27;20084;-82
2024/03/18 05:09:59;;;;;;;7.57;3.38;;;10.70;99.90;;;;;;5091919;28;20062;-80
2024/03/18 05:12:25;;;;;;;10.35;3.80;;;10.80;99.90;;;;;;5092206;28;20574;-80
2024/03/18 05:14:51;;;;;;;7.45;3.58;;;10.70;99.90;;;;;;5091671;28;20121;-81
2024/03/18 05:17:17;;;;;;;7.30;3.53;;;10.70;99.90;;;;;;5094428;28;20130;-81
2024/03/18 05:19:43;;;;;;;9.65;4.20;;;10.70;99.90;;;;;;5092554;28;20040;-80
2024/03/18 05:22:10;;;;;;;8.43;3.80;;;10.60;99.90;;;;;;5093106;28;20508;-82
2024/03/18 05:24:37;;;;;;;8.02;3.17;;;10.70;99.90;;;;;;5091591;28;20043;-80
2024/03/18 05:27:04;;;;;;;6.43;3.28;;;10.70;99.90;;;;;;5091395;28;20035;-82
2024/03/18 05:29:29;;;;;;;6.43;3.20;;;10.80;99.90;;;;;;5087933;28;20110;-80
2024/03/18 05:31:55;;;;;;;6.97;3.25;;;10.80;99.90;;;;;;5091319;28;20038;-81
2024/03/18 05:34:20;;;;;;;6.80;3.35;;;10.80;99.90;;;;;;5088966;28;20154;-80
2024/03/18 05:36:46;;;;;;;6.60;3.22;;;10.80;99.90;;;;;;5091758;28;20032;-79
2024/03/18 05:39:11;;;;;;;7.20;3.38;;;10.80;99.90;;;;;;5090942;28;20036;-80
2024/03/18 05:41:37;;;;;;;7.25;3.80;;;10.90;99.90;;;;;;5090475;28;20117;-80
2024/03/18 05:44:03;;;;;;;8.23;4.20;;;11.00;99.90;;;;;;5092068;28;20040;-80
2024/03/18 05:46:29;;;;;;;8.30;3.30;;;11.00;99.90;;;;;;5091475;28;20028;-80
2024/03/18 05:48:55;;;;;;;7.95;3.92;;;11.00;99.90;;;;;;5089224;28;20031;-80
2024/03/18 05:51:20;;;;;;;7.00;2.90;;;11.00;99.90;;;;;;5089053;28;20038;-81
2024/03/18 05:53:46;;;;;;;6.95;3.33;;;11.00;99.90;;;;;;5092019;28;20044;-80
2024/03/18 05:56:12;;;;;;;7.88;3.50;;;11.10;99.90;;;;;;5089291;28;20019;-81
2024/03/18 05:58:41;;;;;;;4.75;3.17;;;11.00;99.90;;;;;;5088111;28;20032;-82
2024/03/18 06:01:16;;;;;;;6.40;3.20;;;11.00;99.90;;;;;;5090786;28;20112;-81
2024/03/18 06:03:41;;;;;;;6.82;3.83;;;11.00;99.90;;;;;;5089519;28;20043;-80
2024/03/18 06:06:08;;;;;;;6.28;3.38;;;11.10;99.90;;;;;;5087789;28;20280;-79
2024/03/18 06:08:34;;;;;;;7.40;3.55;;;11.10;99.90;;;;;;5089272;28;20371;-81
2024/03/18 06:11:00;;;;;;;6.60;3.20;;;11.10;99.90;;;;;;5090362;28;20050;-81
2024/03/18 06:13:26;;;;;;;10.50;5.18;;;11.20;99.90;;;;;;5090994;28;20032;-80
2024/03/18 06:15:52;;;;;;;8.90;5.40;;;11.20;99.90;;;;;;5088646;28;20032;-81
2024/03/18 06:18:18;;;;;;;14.05;7.53;;;11.20;99.90;;;;;;5099544;28;20468;-84
2024/03/18 06:20:44;;;;;;;11.95;7.03;;;11.20;99.90;;;;;;5091748;28;20848;-82
2024/03/18 06:23:16;;;;;;;9.73;5.38;;;11.20;99.90;;;;;;5089027;28;20107;-80
2024/03/18 06:28:42;;;;;;;6.45;3.90;;;11.20;99.90;;;;;;5049881;28;20481;-81
2024/03/18 06:31:08;;;;;;;7.95;4.15;;;11.30;99.90;;;;;;5090600;28;20031;-85
2024/03/18 06:33:35;;;;;;;6.63;3.67;;;11.30;99.90;;;;;;5098802;28;20079;-84
2024/03/18 06:36:07;;;;;;;10.45;4.93;;;11.30;99.90;;;;;;5092499;28;20704;-84
2024/03/18 06:38:33;;;;;;;8.90;4.63;;;11.40;99.90;;;;;;5090211;28;20042;-82
2024/03/18 06:40:58;;;;;;;7.03;4.53;;;11.40;99.90;;;;;;5089612;28;20527;-82
2024/03/18 06:43:24;;;;;;;7.78;4.80;;;11.40;99.90;;;;;;5088538;28;20073;-82
2024/03/18 06:45:49;;;;;;;7.03;4.00;;;11.50;99.90;;;;;;5089090;28;20043;-82
2024/03/18 06:48:15;;;;;;;11.90;5.45;;;11.50;99.90;;;;;;5087236;27;20142;-82
2024/03/18 06:50:41;;;;;;;10.05;4.82;;;11.50;99.90;;;;;;5088603;28;20042;-83
2024/03/18 06:53:07;;;;;;;7.82;4.72;;;11.50;99.90;;;;;;5088498;28;20122;-82
2024/03/18 06:55:34;;;;;;;7.40;4.10;;;11.60;99.90;;;;;;5087042;28;20139;-85
2024/03/18 06:58:02;;;;;;;8.48;3.88;;;11.60;99.90;;;;;;5087949;28;20027;-83
2024/03/18 07:00:27;;;;;;;9.57;3.50;;;11.60;99.90;;;;;;5087662;28;20044;-84
2024/03/18 07:02:53;;;;;;;26.75;15.10;;;11.50;99.90;;;;;;5086158;28;20120;-82
2024/03/18 07:05:23;;;;;;;40.47;22.65;;;11.50;99.90;;;;;;5088990;28;20047;-83
2024/03/18 07:07:49;;;;;;;15.45;9.68;;;11.50;99.90;;;;;;5085966;28;20809;-82
2024/03/18 07:10:15;;;;;;;15.35;6.97;;;11.50;99.90;;;;;;5086680;28;20070;-82
2024/03/18 07:12:42;;;;;;;9.63;6.57;;;11.50;99.90;;;;;;5088605;28;20494;-81
2024/03/18 07:15:09;;;;;;;12.68;6.13;;;11.50;99.90;;;;;;5087996;28;20059;-84
2024/03/18 07:17:35;;;;;;;9.73;5.15;;;11.60;99.90;;;;;;5087483;28;20074;-81
2024/03/18 07:20:06;;;;;;;9.25;4.22;;;11.60;99.90;;;;;;5087960;28;20390;-79
2024/03/18 07:22:34;;;;;;;9.68;4.18;;;11.70;99.90;;;;;;5088236;28;20686;-82
2024/03/18 07:25:00;;;;;;;9.35;3.95;;;11.70;99.90;;;;;;5086996;28;20036;-82
2024/03/18 07:27:29;;;;;;;8.27;4.00;;;11.90;99.90;;;;;;5088729;28;20043;-82
2024/03/18 07:29:55;;;;;;;7.45;3.78;;;11.90;99.90;;;;;;5087191;28;20028;-82
2024/03/18 07:32:23;;;;;;;7.55;4.15;;;12.10;99.90;;;;;;5088021;28;20887;-81
2024/03/18 07:34:49;;;;;;;6.82;3.78;;;12.10;99.90;;;;;;5087513;28;20040;-82
2024/03/18 07:37:15;;;;;;;12.95;3.97;;;12.20;99.90;;;;;;5089095;28;20037;-84
2024/03/18 07:39:40;;;;;;;9.68;4.00;;;12.20;99.90;;;;;;5087673;28;20071;-81
2024/03/18 07:42:06;;;;;;;12.25;3.35;;;12.20;99.90;;;;;;5087812;28;20111;-81
2024/03/18 07:44:32;;;;;;;7.55;3.42;;;12.20;99.90;;;;;;5088571;28;20093;-82
2024/03/18 07:46:58;;;;;;;9.52;3.67;;;12.30;99.90;;;;;;5085565;28;20035;-82
2024/03/18 07:49:24;;;;;;;6.97;3.63;;;12.30;99.90;;;;;;5087290;28;20109;-83
2024/03/18 07:51:49;;;;;;;7.13;3.45;;;12.30;99.90;;;;;;5088180;28;20643;-81
2024/03/18 07:54:16;;;;;;;8.15;4.15;;;12.30;99.90;;;;;;5089908;28;20110;-81
2024/03/18 07:56:41;;;;;;;9.55;3.92;;;12.40;99.90;;;;;;5093272;28;20024;-81
2024/03/18 07:59:10;;;;;;;9.07;4.22;;;12.30;99.90;;;;;;5093948;28;20054;-81
2024/03/18 08:01:35;;;;;;;13.15;4.88;;;12.40;99.90;;;;;;5092757;28;20076;-82
2024/03/18 08:04:01;;;;;;;9.32;4.10;;;12.50;99.90;;;;;;5091393;28;20039;-84
2024/03/18 08:06:27;;;;;;;8.07;4.25;;;12.50;99.90;;;;;;5093610;28;20027;-84
2024/03/18 08:08:53;;;;;;;8.73;4.32;;;12.50;99.90;;;;;;5093736;28;21323;-84
2024/03/18 08:11:18;;;;;;;8.77;4.60;;;12.40;99.90;;;;;;5091830;28;20422;-84
2024/03/18 08:13:44;;;;;;;12.63;4.65;;;12.40;99.90;;;;;;5091233;28;20039;-83
2024/03/18 08:16:09;;;;;;;9.85;4.80;;;12.40;99.90;;;;;;5087213;28;20599;-81
2024/03/18 08:18:35;;;;;;;7.22;3.97;;;12.40;99.90;;;;;;5090080;28;20130;-81
2024/03/18 08:21:01;;;;;;;8.40;4.63;;;12.40;99.90;;;;;;5090950;28;20042;-80
2024/03/18 08:23:26;;;;;;;8.20;5.10;;;12.30;99.90;;;;;;5090904;28;20731;-81
2024/03/18 08:25:52;;;;;;;5.63;3.65;;;12.40;99.90;;;;;;5090557;28;20514;-80
2024/03/18 08:28:17;;;;;;;8.43;4.75;;;12.50;99.90;;;;;;5091485;28;20044;-84
2024/03/18 08:30:43;;;;;;;8.25;4.28;;;12.60;99.90;;;;;;5090311;28;20035;-83
2024/03/18 08:33:09;;;;;;;10.00;4.43;;;12.60;99.90;;;;;;5090401;28;20126;-83
2024/03/18 08:35:37;;;;;;;8.00;3.92;;;12.70;99.90;;;;;;5092317;28;20122;-83
2024/03/18 08:38:03;;;;;;;9.90;5.50;;;12.70;99.90;;;;;;5090236;28;20063;-83
2024/03/18 08:40:29;;;;;;;9.68;5.13;;;12.80;99.90;;;;;;5090246;27;21333;-82
2024/03/18 08:42:54;;;;;;;8.05;4.78;;;12.90;99.90;;;;;;5092119;28;20618;-82
2024/03/18 08:45:20;;;;;;;11.95;5.40;;;12.80;99.90;;;;;;5089596;28;20485;-80
2024/03/18 08:47:45;;;;;;;8.90;5.47;;;12.90;99.90;;;;;;5090224;28;20031;-82
2024/03/18 08:50:11;;;;;;;9.23;5.03;;;12.90;99.90;;;;;;5091819;28;20575;-82
2024/03/18 08:52:37;;;;;;;9.75;5.28;;;12.90;99.90;;;;;;5089528;28;20030;-81
2024/03/18 08:55:06;;;;;;;8.40;5.30;;;12.80;99.90;;;;;;5087359;28;20415;-82
2024/03/18 08:57:31;;;;;;;8.93;4.93;;;12.80;99.90;;;;;;5088651;28;21400;-82
2024/03/18 08:59:57;;;;;;;10.45;5.03;;;12.90;99.90;;;;;;5088495;28;20031;-81
2024/03/18 09:02:23;;;;;;;8.50;5.05;;;12.90;99.90;;;;;;5087549;28;20039;-82
2024/03/18 09:04:49;;;;;;;8.82;4.50;;;13.00;99.90;;;;;;5087085;28;20043;-82
2024/03/18 09:07:14;;;;;;;9.32;5.13;;;13.10;99.90;;;;;;5090177;28;20555;-82
2024/03/18 09:09:40;;;;;;;8.10;4.47;;;13.20;99.90;;;;;;5089977;28;20043;-82
2024/03/18 09:12:06;;;;;;;7.82;4.65;;;13.30;99.90;;;;;;5090465;28;20035;-82
2024/03/18 09:14:32;;;;;;;7.57;4.57;;;13.40;99.90;;;;;;5089408;28;20618;-82
2024/03/18 09:17:01;;;;;;;5.20;3.50;;;13.40;99.90;;;;;;5088604;28;20090;-82
2024/03/18 09:19:28;;;;;;;9.52;4.72;;;13.50;99.90;;;;;;5089305;28;20023;-81
2024/03/18 09:21:53;;;;;;;7.75;3.92;;;13.40;99.90;;;;;;5089810;28;20070;-80
2024/03/18 09:24:19;;;;;;;7.88;4.53;;;13.30;99.90;;;;;;5088663;28;20544;-79
2024/03/18 09:26:46;;;;;;;12.40;4.72;;;13.30;99.90;;;;;;5089611;28;20043;-80
2024/03/18 09:29:12;;;;;;;12.43;5.05;;;13.30;99.90;;;;;;5090595;28;20076;-80
2024/03/18 09:31:37;;;;;;;10.82;5.55;;;13.30;99.90;;;;;;5089609;28;20027;-79
2024/03/18 09:34:03;;;;;;;9.40;5.13;;;13.20;99.90;;;;;;5089787;28;20027;-80
2024/03/18 09:36:29;;;;;;;8.27;4.75;;;13.30;99.90;;;;;;5089501;28;20718;-80
2024/03/18 09:38:54;;;;;;;8.15;4.80;;;13.30;99.90;;;;;;5088515;28;20335;-79
2024/03/18 09:41:20;;;;;;;9.07;4.30;;;13.40;99.90;;;;;;5088485;28;20050;-80
2024/03/18 09:43:47;;;;;;;10.85;5.55;;;13.30;99.90;;;;;;5088575;28;20085;-79
2024/03/18 09:46:18;;;;;;;14.70;5.68;;;13.20;99.90;;;;;;5088018;28;20035;-80
2024/03/18 09:48:44;;;;;;;12.38;5.57;;;13.20;99.90;;;;;;5087189;28;20462;-80
2024/03/18 09:51:17;;;;;;;8.75;5.35;;;13.10;99.90;;;;;;5090765;28;20031;-80
2024/03/18 09:53:47;;;;;;;9.75;5.25;;;13.20;99.90;;;;;;5090080;27;20044;-81
2024/03/18 09:56:14;;;;;;;14.18;5.63;;;13.20;99.90;;;;;;5089024;28;20589;-80
2024/03/18 09:58:41;;;;;;;11.93;5.60;;;13.20;99.90;;;;;;5089656;28;20110;-80
2024/03/18 10:01:10;;;;;;;10.60;5.65;;;13.10;99.90;;;;;;5089340;28;20389;-80
2024/03/18 10:03:40;;;;;;;8.82;4.75;;;13.10;99.90;;;;;;5088341;28;20043;-82
2024/03/18 10:06:05;;;;;;;8.90;4.93;;;13.00;99.90;;;;;;5090275;28;20131;-81
2024/03/18 10:08:35;;;;;;;10.35;5.47;;;13.10;99.90;;;;;;5087671;28;20031;-81
2024/03/18 10:11:01;;;;;;;8.85;4.40;;;13.10;99.90;;;;;;5088944;28;20032;-81
2024/03/18 10:13:26;;;;;;;11.93;5.40;;;13.10;99.90;;;;;;5088722;28;20109;-81
2024/03/18 10:15:52;;;;;;;10.10;5.10;;;13.10;99.90;;;;;;5088880;27;20104;-80
2024/03/18 10:18:17;;;;;;;9.05;4.72;;;13.10;99.90;;;;;;5091151;28;20040;-80
2024/03/18 10:20:43;;;;;;;9.13;5.03;;;13.10;99.90;;;;;;5092550;28;20119;-80
2024/03/18 10:23:11;;;;;;;10.00;5.57;;;13.10;99.90;;;;;;5091182;28;20035;-80
2024/03/18 10:25:37;;;;;;;9.98;5.05;;;13.00;99.90;;;;;;5090644;28;20051;-80
2024/03/18 10:28:05;;;;;;;12.07;5.30;;;13.10;99.90;;;;;;5092395;28;20039;-79
2024/03/18 10:30:31;;;;;;;9.98;5.05;;;13.10;99.90;;;;;;5089024;28;20130;-80
2024/03/18 10:32:58;;;;;;;11.40;4.95;;;13.00;99.90;;;;;;5089739;28;20028;-80
2024/03/18 10:35:26;;;;;;;8.45;5.07;;;13.10;99.90;;;;;;5092128;28;20649;-81
2024/03/18 10:38:28;;;;;;;10.80;5.75;;;13.00;99.90;;;;;;5091585;28;20505;-80
2024/03/18 10:40:55;;;;;;;8.98;5.38;;;13.00;99.90;;;;;;5091647;28;20027;-81
2024/03/18 10:43:36;;;;;;;9.63;4.78;;;13.00;99.90;;;;;;5091510;28;20055;-82
2024/03/18 10:46:02;;;;;;;9.07;4.82;;;13.00;99.90;;;;;;5090846;28;20508;-80
2024/03/18 10:48:28;;;;;;;10.30;5.43;;;13.00;99.90;;;;;;5090581;28;20559;-81
2024/03/18 10:50:55;;;;;;;11.13;4.80;;;12.90;99.90;;;;;;5092689;28;20043;-82
2024/03/18 10:53:26;;;;;;;7.90;4.90;;;12.80;99.90;;;;;;5090003;28;20039;-85
2024/03/18 10:55:53;;;;;;;9.23;4.65;;;12.90;99.90;;;;;;5090036;28;20437;-84
2024/03/18 10:58:25;;;;;;;9.18;4.57;;;12.80;99.90;;;;;;5090174;28;20386;-83
2024/03/18 11:00:52;;;;;;;8.48;5.15;;;12.80;99.90;;;;;;5092027;28;20577;-83
2024/03/18 11:03:22;;;;;;;10.90;5.47;;;12.80;99.90;;;;;;5089375;27;20043;-83
2024/03/18 11:05:55;;;;;;;11.02;5.25;;;12.70;99.90;;;;;;5088829;28;20039;-82
2024/03/18 11:08:23;;;;;;;8.77;5.03;;;12.90;99.90;;;;;;5090677;28;20958;-82
2024/03/18 11:10:53;;;;;;;10.20;4.90;;;12.90;99.90;;;;;;5091700;28;20121;-81
2024/03/18 11:13:21;;;;;;;11.65;6.28;;;12.70;99.90;;;;;;5090228;28;20040;-82
2024/03/18 11:15:46;;;;;;;13.43;6.10;;;12.60;99.90;;;;;;5089463;28;20541;-81
2024/03/18 11:18:18;;;;;;;9.85;5.82;;;12.40;99.90;;;;;;5091110;28;20158;-82
2024/03/18 11:20:49;;;;;;;12.52;5.90;;;12.30;99.90;;;;;;5091207;28;20038;-81
2024/03/18 11:23:20;;;;;;;15.40;5.45;;;12.30;99.90;;;;;;5089625;28;20040;-82
2024/03/18 11:25:57;;;;;;;11.48;6.20;;;12.30;99.90;;;;;;5089834;28;20130;-82
2024/03/18 11:28:36;;;;;;;9.73;5.32;;;12.30;99.90;;;;;;5088788;28;20035;-81
2024/03/18 11:31:21;;;;;;;9.98;5.72;;;12.30;99.90;;;;;;5090841;28;20115;-82
2024/03/18 11:33:48;;;;;;;12.43;5.97;;;12.30;99.90;;;;;;5091117;28;20045;-82
2024/03/18 11:36:16;;;;;;;10.00;6.20;;;12.30;99.90;;;;;;5090038;28;20477;-82
2024/03/18 11:38:42;;;;;;;11.43;5.97;;;12.20;99.90;;;;;;5090330;28;20214;-81
2024/03/18 11:41:07;;;;;;;11.90;6.28;;;12.40;99.90;;;;;;5090534;28;20063;-81
2024/03/18 11:43:34;;;;;;;14.63;5.78;;;12.40;99.90;;;;;;5091038;28;20620;-82
2024/03/18 11:46:00;;;;;;;10.05;6.32;;;12.60;99.90;;;;;;5089431;28;20454;-81
2024/03/18 11:48:30;;;;;;;11.50;6.68;;;12.50;99.90;;;;;;5091868;28;20047;-82
2024/03/18 11:50:56;;;;;;;11.95;6.05;;;12.60;99.90;;;;;;5089743;28;20039;-82
2024/03/18 11:53:21;;;;;;;13.70;6.30;;;12.60;99.90;;;;;;5090658;28;20028;-83
2024/03/18 11:55:55;;;;;;;15.65;7.97;;;12.60;99.90;;;;;;5090239;28;20696;-81
2024/03/18 11:58:21;;;;;;;13.77;7.00;;;12.60;99.90;;;;;;5088737;28;20039;-83
2024/03/18 12:00:50;;;;;;;13.32;8.60;;;12.60;99.90;;;;;;5090595;28;20036;-82
2024/03/18 12:03:16;;;;;;;14.20;9.50;;;12.60;99.90;;;;;;5089839;28;20107;-82
2024/03/18 12:05:46;;;;;;;11.55;6.93;;;12.50;99.90;;;;;;5088163;28;20397;-81
2024/03/18 12:08:21;;;;;;;11.85;5.97;;;12.20;99.90;;;;;;5086951;28;20054;-83
2024/03/18 12:10:52;;;;;;;9.43;5.30;;;12.10;99.90;;;;;;5088271;28;20035;-82
2024/03/18 12:13:19;;;;;;;10.23;5.03;;;12.10;99.90;;;;;;5089856;28;20059;-83
2024/03/18 12:15:45;;;;;;;10.88;5.60;;;12.00;99.90;;;;;;5089608;28;20162;-82
2024/03/18 12:18:11;;;;;;;11.43;5.22;;;11.80;99.90;;;;;;5090095;28;20051;-82
2024/03/18 12:20:36;;;;;;;11.23;5.30;;;11.90;99.90;;;;;;5091293;28;20016;-81
2024/03/18 12:23:06;;;;;;;10.13;5.90;;;11.90;99.90;;;;;;5088688;28;20753;-82
2024/03/18 12:31:09;;;;;;;10.32;5.75;;;11.70;99.90;;;;;;5092048;28;20116;-81
2024/03/18 12:33:35;;;;;;;9.85;6.28;;;11.80;99.90;;;;;;5090530;28;21051;-83
2024/03/18 12:36:04;;;;;;;13.23;6.95;;;11.80;99.90;;;;;;5090327;28;20088;-81
2024/03/18 12:38:37;;;;;;;11.27;6.65;;;11.80;99.90;;;;;;5086804;28;20034;-81
2024/03/18 12:41:04;;;;;;;17.23;7.00;;;11.80;99.90;;;;;;5089605;28;20032;-81
2024/03/18 12:43:31;;;;;;;11.07;6.38;;;11.70;99.90;;;;;;5089835;28;20040;-81
2024/03/18 12:45:57;;;;;;;12.35;6.43;;;11.60;99.90;;;;;;5090710;28;20039;-80
2024/03/18 12:48:24;;;;;;;12.95;7.18;;;11.60;99.90;;;;;;5089179;28;20093;-83